createdAt,value
2023-01-07T00:01:58.337Z,2.95
2023-01-07T00:04:25.243Z,2.35
2023-01-07T00:06:56.738Z,1.75
2023-01-07T00:11:50.611Z,1.45
2023-01-07T00:14:17.565Z,1.70
2023-01-07T00:16:44.651Z,1.40
2023-01-07T00:19:15.546Z,1.50
2023-01-07T00:21:42.863Z,1.40
2023-01-07T00:24:11.487Z,2.20
2023-01-07T00:26:39.441Z,1.90
2023-01-07T00:29:07.417Z,1.80
2023-01-07T00:31:40.022Z,1.88
2023-01-07T00:34:08.827Z,1.77
2023-01-07T00:36:45.203Z,1.45
2023-01-07T00:39:19.729Z,1.42
2023-01-07T00:42:18.582Z,1.40
2023-01-07T00:44:48.078Z,1.10
2023-01-07T00:47:17.913Z,1.10
2023-01-07T00:49:47.363Z,0.98
2023-01-07T00:52:14.274Z,0.93
2023-01-07T00:54:41.211Z,0.75
2023-01-07T00:57:13.258Z,1.10
2023-01-07T00:59:42.655Z,1.23
2023-01-07T01:02:09.739Z,1.50
2023-01-07T01:04:36.860Z,1.48
2023-01-07T01:07:03.794Z,1.60
2023-01-07T01:09:32.958Z,1.70
2023-01-07T01:11:59.862Z,1.80
2023-01-07T01:14:26.757Z,1.70
2023-01-07T01:16:53.646Z,1.90
2023-01-07T01:19:20.527Z,1.60
2023-01-07T01:21:47.408Z,1.55
2023-01-07T01:24:14.495Z,1.40
2023-01-07T01:26:41.444Z,1.50
2023-01-07T01:29:10.908Z,1.40
2023-01-07T01:31:38.218Z,1.05
2023-01-07T01:34:07.234Z,1.70
2023-01-07T01:36:34.159Z,1.40
2023-01-07T01:39:04.893Z,1.30
2023-01-07T01:41:32.359Z,1.70
2023-01-07T01:43:59.297Z,1.40
2023-01-07T01:46:42.083Z,1.25
2023-01-07T01:49:25.191Z,1.38
2023-01-07T01:52:09.850Z,1.15
2023-01-07T01:54:36.961Z,1.10
2023-01-07T01:57:07.400Z,1.10
2023-01-07T01:59:41.121Z,1.00
2023-01-07T02:02:11.339Z,0.95
2023-01-07T02:04:38.912Z,0.90
2023-01-07T02:07:09.892Z,1.10
2023-01-07T02:09:36.749Z,0.82
2023-01-07T02:12:26.374Z,1.20
2023-01-07T02:15:33.602Z,1.10
2023-01-07T02:18:42.828Z,1.33
2023-01-07T02:21:46.517Z,1.10
2023-01-07T02:24:41.481Z,0.98
2023-01-07T02:27:42.060Z,1.23
2023-01-07T02:30:32.067Z,1.10
2023-01-07T02:33:28.488Z,1.10
2023-01-07T02:36:16.474Z,1.25
2023-01-07T02:39:06.403Z,1.20
2023-01-07T02:41:45.245Z,1.10
2023-01-07T02:45:06.870Z,1.00
2023-01-07T02:47:55.147Z,0.90
2023-01-07T02:50:24.515Z,0.80
2023-01-07T02:52:51.426Z,0.90
2023-01-07T02:55:35.532Z,0.70
2023-01-07T02:58:37.629Z,0.80
2023-01-07T03:01:32.319Z,0.90
2023-01-07T03:04:21.409Z,0.60
2023-01-07T03:07:53.052Z,1.00
2023-01-07T03:10:32.660Z,1.20
2023-01-07T03:13:08.337Z,1.15
2023-01-07T03:15:51.032Z,1.00
2023-01-07T03:18:25.111Z,0.90
2023-01-07T03:20:59.902Z,0.98
2023-01-07T03:23:30.716Z,0.80
2023-01-07T03:26:04.141Z,0.85
2023-01-07T03:28:37.433Z,1.00
2023-01-07T03:31:06.113Z,0.93
2023-01-07T03:33:46.735Z,1.00
2023-01-07T03:36:18.329Z,2.03
2023-01-07T03:41:35.392Z,2.88
2023-01-07T03:44:02.481Z,3.40
2023-01-07T03:46:33.857Z,3.47
2023-01-07T03:49:00.761Z,3.88
2023-01-07T03:51:30.212Z,3.85
2023-01-07T03:53:59.304Z,3.38
2023-01-07T03:56:26.245Z,3.35
2023-01-07T03:58:53.193Z,3.22
2023-01-07T04:01:23.341Z,2.80
2023-01-07T04:03:50.324Z,2.90
2023-01-07T04:06:17.162Z,2.80
2023-01-07T04:08:44.020Z,3.03
2023-01-07T04:11:11.122Z,3.10
2023-01-07T04:13:38.043Z,3.42
2023-01-07T04:16:05.550Z,3.47
2023-01-07T04:18:37.117Z,3.53
2023-01-07T04:23:33.629Z,2.80
2023-01-07T04:26:00.660Z,3.10
2023-01-07T04:28:32.466Z,3.10
2023-01-07T04:30:59.979Z,3.03
2023-01-07T04:33:29.381Z,3.22
2023-01-07T04:35:57.847Z,2.95
2023-01-07T04:38:26.901Z,3.42
2023-01-07T04:40:53.757Z,3.13
2023-01-07T04:43:20.665Z,3.65
2023-01-07T04:45:47.607Z,3.60
2023-01-07T04:48:14.679Z,3.83
2023-01-07T04:50:44.110Z,3.90
2023-01-07T04:53:14.132Z,3.75
2023-01-07T04:55:44.975Z,4.00
2023-01-07T04:58:13.197Z,4.13
2023-01-07T05:00:42.201Z,4.72
2023-01-07T05:03:09.445Z,4.65
2023-01-07T05:05:36.346Z,4.05
2023-01-07T05:08:03.633Z,4.47
2023-01-07T05:10:30.763Z,4.75
2023-01-07T05:12:57.726Z,4.97
2023-01-07T05:15:29.341Z,4.43
2023-01-07T05:20:25.443Z,5.20
2023-01-07T05:22:52.349Z,5.30
2023-01-07T05:25:19.254Z,5.30
2023-01-07T05:27:46.140Z,5.28
2023-01-07T05:30:17.740Z,5.88
2023-01-07T05:35:13.694Z,5.40
2023-01-07T05:37:45.116Z,5.15
2023-01-07T05:40:12.969Z,5.75
2023-01-07T05:42:42.302Z,5.93
2023-01-07T05:45:14.144Z,5.47
2023-01-07T05:47:41.014Z,5.50
2023-01-07T05:50:10.642Z,5.55
2023-01-07T05:52:37.570Z,6.15
2023-01-07T05:55:06.355Z,6.05
2023-01-07T05:57:35.930Z,5.15
2023-01-07T06:00:03.186Z,5.18
2023-01-07T06:02:32.602Z,5.75
2023-01-07T06:04:59.548Z,5.45
2023-01-07T06:07:28.712Z,4.70
2023-01-07T06:10:01.877Z,5.10
2023-01-07T06:12:30.271Z,5.03
2023-01-07T06:14:57.185Z,4.80
2023-01-07T06:17:24.047Z,4.30
2023-01-07T06:19:53.892Z,5.25
2023-01-07T06:22:23.000Z,5.10
2023-01-07T06:24:52.186Z,5.07
2023-01-07T06:27:19.119Z,5.07
2023-01-07T06:29:46.022Z,5.03
2023-01-07T06:32:12.943Z,4.85
2023-01-07T06:34:42.020Z,5.00
2023-01-07T06:37:08.849Z,5.40
2023-01-07T06:39:35.756Z,4.25
2023-01-07T06:42:02.656Z,4.82
2023-01-07T06:44:29.598Z,4.78
2023-01-07T06:46:56.454Z,4.93
2023-01-07T06:49:23.304Z,5.30
2023-01-07T06:51:52.712Z,5.60
2023-01-07T06:54:21.805Z,5.00
2023-01-07T06:56:50.870Z,4.70
2023-01-07T06:59:17.747Z,5.28
2023-01-07T07:01:46.581Z,4.57
2023-01-07T07:04:13.719Z,4.55
2023-01-07T07:06:40.614Z,4.55
2023-01-07T07:09:07.488Z,4.78
2023-01-07T07:11:36.635Z,4.80
2023-01-07T07:14:06.072Z,5.05
2023-01-07T07:16:35.458Z,5.63
2023-01-07T07:19:02.360Z,4.82
2023-01-07T07:21:29.216Z,5.45
2023-01-07T07:23:58.175Z,5.18
2023-01-07T07:26:25.811Z,5.20
2023-01-07T07:28:54.950Z,4.70
2023-01-07T07:31:24.915Z,4.72
2023-01-07T07:33:51.847Z,4.75
2023-01-07T07:36:20.974Z,4.35
2023-01-07T07:38:50.178Z,4.85
2023-01-07T07:41:19.609Z,4.80
2023-01-07T07:43:48.663Z,5.15
2023-01-07T07:46:18.225Z,5.10
2023-01-07T07:48:45.166Z,5.70
2023-01-07T07:51:14.308Z,5.25
2023-01-07T07:53:41.190Z,5.45
2023-01-07T07:56:11.003Z,5.55
2023-01-07T07:58:40.117Z,4.70
2023-01-07T08:01:07.158Z,5.47
2023-01-07T08:03:34.126Z,5.10
2023-01-07T08:06:01.024Z,5.65
2023-01-07T08:08:27.965Z,6.78
2023-01-07T08:10:56.123Z,5.90
2023-01-07T08:13:25.848Z,5.90
2023-01-07T08:15:54.844Z,5.07
2023-01-07T08:18:21.765Z,5.60
2023-01-07T08:20:50.940Z,5.10
2023-01-07T08:23:23.339Z,5.47
2023-01-07T08:25:53.238Z,5.00
2023-01-07T08:28:20.165Z,4.53
2023-01-07T08:30:49.201Z,5.03
2023-01-07T08:33:18.206Z,4.63
2023-01-07T08:35:45.503Z,4.95
2023-01-07T08:38:15.020Z,5.00
2023-01-07T08:40:41.904Z,5.90
2023-01-07T08:43:09.097Z,5.40
2023-01-07T08:45:36.190Z,5.93
2023-01-07T08:48:03.434Z,7.35
2023-01-07T08:50:35.570Z,26.38
2023-01-07T08:53:04.948Z,8.80
2023-01-07T08:55:31.812Z,6.13
2023-01-07T08:57:58.840Z,4.90
2023-01-07T09:00:29.293Z,5.43
2023-01-07T09:02:58.450Z,5.70
2023-01-07T09:05:27.618Z,5.22
2023-01-07T09:07:57.744Z,5.35
2023-01-07T09:10:27.743Z,4.70
2023-01-07T09:12:54.797Z,5.38
2023-01-07T09:15:21.979Z,4.55
2023-01-07T09:17:48.838Z,4.45
2023-01-07T09:20:18.856Z,5.13
2023-01-07T09:22:46.362Z,5.38
2023-01-07T09:25:13.583Z,4.93
2023-01-07T09:27:43.113Z,4.97
2023-01-07T09:30:15.020Z,4.70
2023-01-07T09:32:45.464Z,6.00
2023-01-07T09:35:12.937Z,5.15
2023-01-07T09:37:40.067Z,5.10
2023-01-07T09:40:12.731Z,4.80
2023-01-07T09:42:54.603Z,4.75
2023-01-07T09:45:31.006Z,4.65
2023-01-07T09:48:05.112Z,4.70
2023-01-07T09:51:07.771Z,4.97
2023-01-07T09:53:40.677Z,5.20
2023-01-07T09:56:24.125Z,4.85
2023-01-07T09:58:54.977Z,4.65
2023-01-07T10:01:45.889Z,4.78
2023-01-07T10:04:56.355Z,4.97
2023-01-07T10:07:35.331Z,5.30
2023-01-07T10:10:29.738Z,4.97
2023-01-07T10:13:27.263Z,4.88
2023-01-07T10:16:31.266Z,4.55
2023-01-07T10:19:11.695Z,4.72
2023-01-07T10:21:55.072Z,5.25
2023-01-07T10:24:45.590Z,5.20
2023-01-07T10:27:18.760Z,5.10
2023-01-07T10:29:55.369Z,5.05
2023-01-07T10:32:25.210Z,4.82
2023-01-07T10:34:59.390Z,4.60
2023-01-07T10:37:42.057Z,4.60
2023-01-07T10:40:36.097Z,4.80
2023-01-07T10:43:33.554Z,4.88
2023-01-07T10:46:29.499Z,4.72
2023-01-07T10:49:22.620Z,4.68
2023-01-07T10:51:58.114Z,5.32
2023-01-07T10:54:58.128Z,4.75
2023-01-07T10:57:28.936Z,5.00
2023-01-07T11:00:05.411Z,4.70
2023-01-07T11:02:34.816Z,4.18
2023-01-07T11:05:01.893Z,4.50
2023-01-07T11:07:48.827Z,4.53
2023-01-07T11:10:21.731Z,5.13
2023-01-07T11:13:16.591Z,4.88
2023-01-07T11:16:08.053Z,4.78
2023-01-07T11:19:01.244Z,4.47
2023-01-07T11:21:43.289Z,6.30
2023-01-07T11:24:30.250Z,5.05
2023-01-07T11:27:22.181Z,6.22
2023-01-07T11:30:26.345Z,5.07
2023-01-07T11:33:04.675Z,4.88
2023-01-07T11:35:32.690Z,4.35
2023-01-07T11:38:00.521Z,4.25
2023-01-07T11:40:30.985Z,4.15
2023-01-07T11:43:10.567Z,4.53
2023-01-07T11:46:19.616Z,4.70
2023-01-07T11:48:43.035Z,5.30
2023-01-07T11:51:11.040Z,5.75
2023-01-07T11:53:50.488Z,5.80
2023-01-07T11:56:32.281Z,5.68
2023-01-07T11:59:26.938Z,5.03
2023-01-07T12:01:59.372Z,4.53
2023-01-07T12:04:37.175Z,4.60
2023-01-07T12:07:14.508Z,4.53
2023-01-07T12:09:44.195Z,4.95
2023-01-07T12:12:39.457Z,5.25
2023-01-07T12:15:19.334Z,6.10
2023-01-07T12:18:02.315Z,5.72
2023-01-07T12:21:00.903Z,5.82
2023-01-07T12:23:53.516Z,5.60
2023-01-07T12:26:26.983Z,5.70
2023-01-07T12:29:25.887Z,5.90
2023-01-07T12:32:11.653Z,5.85
2023-01-07T12:34:43.834Z,5.40
2023-01-07T12:37:24.900Z,6.03
2023-01-07T12:39:58.221Z,4.85
2023-01-07T12:42:36.725Z,5.80
2023-01-07T12:45:15.599Z,5.32
2023-01-07T12:47:51.171Z,5.18
2023-01-07T12:50:41.708Z,5.10
2023-01-07T12:53:34.537Z,5.30
2023-01-07T12:56:18.639Z,5.53
2023-01-07T12:59:45.811Z,5.57
2023-01-07T13:02:35.773Z,5.75
2023-01-07T13:05:20.721Z,6.68
2023-01-07T13:08:04.473Z,6.82
2023-01-07T13:10:45.696Z,6.75
2023-01-07T13:13:28.150Z,6.40
2023-01-07T13:15:56.853Z,6.45
2023-01-07T13:18:24.733Z,6.28
2023-01-07T13:21:14.063Z,6.38
2023-01-07T13:24:09.324Z,6.45
2023-01-07T13:27:14.580Z,6.38
2023-01-07T13:30:09.461Z,6.32
2023-01-07T13:33:07.763Z,6.75
2023-01-07T13:36:01.190Z,5.65
2023-01-07T13:39:27.958Z,5.55
2023-01-07T13:42:50.248Z,5.45
2023-01-07T13:45:39.378Z,5.65
2023-01-07T13:48:21.706Z,5.28
2023-01-07T13:51:07.718Z,5.93
2023-01-07T13:53:46.920Z,5.95
2023-01-07T13:56:16.929Z,6.30
2023-01-07T13:58:53.700Z,5.95
2023-01-07T14:01:26.888Z,5.72
2023-01-07T14:04:19.688Z,5.68
2023-01-07T14:06:52.138Z,5.68
2023-01-07T14:09:31.810Z,6.13
2023-01-07T14:12:23.772Z,6.30
2023-01-07T14:15:16.992Z,6.70
2023-01-07T14:17:59.276Z,6.63
2023-01-07T14:20:39.886Z,6.70
2023-01-07T14:23:47.242Z,5.60
2023-01-07T14:26:24.091Z,6.13
2023-01-07T14:29:08.597Z,5.68
2023-01-07T14:31:40.341Z,6.20
2023-01-07T14:34:36.620Z,5.97
2023-01-07T14:37:04.987Z,6.53
2023-01-07T14:39:40.962Z,6.20
2023-01-07T14:42:20.149Z,6.00
2023-01-07T14:44:51.140Z,5.70
2023-01-07T14:47:46.033Z,5.93
2023-01-07T14:50:24.083Z,5.80
2023-01-07T14:53:43.054Z,5.68
2023-01-07T14:56:21.733Z,5.88
2023-01-07T14:59:06.933Z,6.35
2023-01-07T15:01:54.625Z,5.65
2023-01-07T15:04:52.443Z,5.88
2023-01-07T15:07:27.013Z,5.25
2023-01-07T15:10:36.757Z,5.75
2023-01-07T15:13:26.814Z,5.72
2023-01-07T15:16:07.415Z,5.72
2023-01-07T15:18:54.439Z,5.78
2023-01-07T15:21:27.100Z,5.75
2023-01-07T15:24:13.158Z,6.40
2023-01-07T15:26:59.032Z,5.70
2023-01-07T15:29:37.037Z,6.55
2023-01-07T15:32:21.436Z,6.10
2023-01-07T15:34:48.417Z,6.60
2023-01-07T15:37:18.079Z,7.53
2023-01-07T15:39:52.810Z,6.50
2023-01-07T15:42:23.159Z,6.05
2023-01-07T15:44:54.480Z,9.15
2023-01-07T15:47:42.556Z,9.45
2023-01-07T15:50:31.815Z,9.35
2023-01-07T15:53:04.096Z,6.88
2023-01-07T15:55:40.683Z,5.68
2023-01-07T15:58:18.052Z,6.28
2023-01-07T16:00:51.923Z,5.63
2023-01-07T16:03:22.518Z,4.95
2023-01-07T16:05:53.204Z,5.35
2023-01-07T16:08:32.739Z,5.50
2023-01-07T16:11:02.270Z,5.35
2023-01-07T16:13:31.834Z,5.10
2023-01-07T16:16:06.658Z,5.47
2023-01-07T16:18:33.892Z,6.80
2023-01-07T16:21:13.509Z,9.10
2023-01-07T16:23:43.686Z,7.50
2023-01-07T16:26:27.707Z,6.90
2023-01-07T16:29:02.434Z,9.43
2023-01-07T16:31:31.093Z,9.00
2023-01-07T16:33:59.929Z,8.68
2023-01-07T16:36:44.673Z,8.88
2023-01-07T16:39:22.871Z,8.65
2023-01-07T16:41:49.955Z,7.82
2023-01-07T16:44:49.710Z,7.55
2023-01-07T16:47:32.256Z,6.00
2023-01-07T16:50:19.993Z,6.03
2023-01-07T16:52:54.401Z,6.30
2023-01-07T16:55:58.573Z,6.35
2023-01-07T16:58:42.143Z,5.68
2023-01-07T17:01:10.644Z,6.13
2023-01-07T17:03:59.127Z,6.50
2023-01-07T17:06:30.605Z,6.65
2023-01-07T17:09:00.530Z,6.80
2023-01-07T17:11:38.378Z,6.20
2023-01-07T17:14:34.049Z,6.93
2023-01-07T17:17:09.125Z,7.32
2023-01-07T17:19:42.087Z,7.25
2023-01-07T17:22:38.154Z,9.10
2023-01-07T17:25:28.422Z,10.00
2023-01-07T17:28:06.707Z,10.05
2023-01-07T17:30:37.358Z,10.77
2023-01-07T17:33:07.503Z,11.02
2023-01-07T17:35:44.168Z,12.98
2023-01-07T17:38:16.073Z,12.50
2023-01-07T17:40:46.902Z,12.50
2023-01-07T17:43:34.998Z,12.25
2023-01-07T17:46:12.256Z,10.82
2023-01-07T17:48:39.654Z,10.95
2023-01-07T17:51:07.234Z,10.32
2023-01-07T17:53:57.185Z,11.05
2023-01-07T17:56:30.057Z,11.27
2023-01-07T17:58:57.055Z,10.65
2023-01-07T18:01:28.293Z,10.30
2023-01-07T18:03:55.399Z,8.52
2023-01-07T18:06:35.009Z,9.60
2023-01-07T18:09:05.001Z,9.27
2023-01-07T18:11:58.591Z,9.93
2023-01-07T18:14:28.012Z,7.85
2023-01-07T18:16:55.085Z,8.13
2023-01-07T18:19:22.061Z,10.02
2023-01-07T18:21:48.989Z,9.65
2023-01-07T18:24:19.688Z,11.02
2023-01-07T18:26:47.276Z,10.43
2023-01-07T18:29:15.142Z,9.70
2023-01-07T18:31:45.638Z,10.95
2023-01-07T18:34:15.017Z,13.48
2023-01-07T18:36:42.397Z,13.57
2023-01-07T18:39:19.648Z,14.73
2023-01-07T18:41:48.813Z,15.13
2023-01-07T18:44:17.434Z,12.55
2023-01-07T18:46:44.460Z,11.70
2023-01-07T18:49:12.222Z,11.95
2023-01-07T18:51:39.352Z,11.35
2023-01-07T18:54:06.995Z,11.40
2023-01-07T18:56:33.887Z,12.98
2023-01-07T18:59:03.253Z,13.27
2023-01-07T19:01:30.499Z,15.15
2023-01-07T19:03:58.012Z,16.33
2023-01-07T19:06:27.307Z,16.20
2023-01-07T19:08:56.703Z,13.98
2023-01-07T19:11:26.387Z,13.65
2023-01-07T19:13:53.375Z,12.77
2023-01-07T19:16:21.404Z,12.63
2023-01-07T19:18:53.241Z,12.98
2023-01-07T19:21:22.782Z,12.70
2023-01-07T19:23:54.668Z,11.80
2023-01-07T19:26:22.232Z,10.68
2023-01-07T19:28:49.279Z,11.15
2023-01-07T19:31:16.364Z,11.32
2023-01-07T19:33:43.439Z,10.63
2023-01-07T19:36:15.004Z,10.95
2023-01-07T19:38:48.619Z,11.85
2023-01-07T19:41:23.213Z,16.50
2023-01-07T19:43:52.323Z,17.20
2023-01-07T19:46:20.184Z,18.10
2023-01-07T19:48:47.857Z,15.40
2023-01-07T19:51:15.221Z,15.10
2023-01-07T19:53:42.224Z,13.50
2023-01-07T19:56:12.262Z,12.77
2023-01-07T19:58:42.296Z,13.15
2023-01-07T20:01:13.157Z,14.38
2023-01-07T20:03:41.122Z,14.98
2023-01-07T20:06:15.749Z,16.17
2023-01-07T20:08:43.346Z,13.43
2023-01-07T20:11:13.737Z,12.10
2023-01-07T20:13:41.636Z,11.55
2023-01-07T20:16:13.493Z,11.05
2023-01-07T20:18:50.877Z,11.35
2023-01-07T20:21:26.419Z,12.10
2023-01-07T20:23:54.253Z,12.15
2023-01-07T20:26:30.471Z,12.50
2023-01-07T20:28:58.887Z,12.68
2023-01-07T20:31:31.089Z,12.02
2023-01-07T20:33:59.282Z,10.07
2023-01-07T20:36:32.393Z,8.85
2023-01-07T20:39:06.032Z,9.52
2023-01-07T20:41:35.383Z,12.80
2023-01-07T20:44:09.416Z,14.48
2023-01-07T20:46:38.928Z,11.10
2023-01-07T20:49:09.456Z,9.93
2023-01-07T20:51:36.367Z,9.43
2023-01-07T20:54:08.216Z,10.10
2023-01-07T20:56:35.307Z,10.10
2023-01-07T20:59:02.411Z,10.30
2023-01-07T21:01:32.032Z,10.80
2023-01-07T21:04:01.446Z,11.27
2023-01-07T21:06:30.955Z,12.27
2023-01-07T21:08:58.082Z,14.85
2023-01-07T21:11:25.107Z,15.25
2023-01-07T21:13:57.201Z,13.48
2023-01-07T21:16:28.565Z,13.30
2023-01-07T21:18:56.447Z,16.80
2023-01-07T21:21:25.303Z,14.38
2023-01-07T21:23:57.590Z,12.95
2023-01-07T21:26:25.204Z,9.75
2023-01-07T21:28:56.225Z,10.07
2023-01-07T21:31:26.305Z,9.82
2023-01-07T21:33:57.944Z,10.27
2023-01-07T21:38:55.203Z,9.30
2023-01-07T21:41:23.404Z,10.48
2023-01-07T21:43:50.758Z,9.80
2023-01-07T21:46:18.221Z,9.60
2023-01-07T21:48:47.023Z,9.48
2023-01-07T21:51:26.418Z,9.75
2023-01-07T21:53:55.978Z,9.75
2023-01-07T21:56:28.766Z,10.27
2023-01-07T21:58:58.060Z,10.25
2023-01-07T22:01:30.381Z,9.07
2023-01-07T22:03:59.062Z,9.82
2023-01-07T22:06:33.091Z,9.13
2023-01-07T22:09:06.289Z,8.27
2023-01-07T22:11:38.505Z,8.05
2023-01-07T22:14:05.444Z,8.98
2023-01-07T22:16:34.993Z,8.75
2023-01-07T22:19:05.070Z,10.52
2023-01-07T22:21:34.601Z,8.45
2023-01-07T22:24:04.630Z,8.40
2023-01-07T22:26:36.024Z,8.02
2023-01-07T22:29:06.954Z,8.95
2023-01-07T22:31:37.332Z,7.82
2023-01-07T22:34:06.570Z,8.15
2023-01-07T22:36:53.743Z,8.25
2023-01-07T22:39:36.489Z,6.80
2023-01-07T22:42:51.785Z,7.20
2023-01-07T22:45:43.993Z,6.43
2023-01-07T22:48:15.520Z,6.85
2023-01-07T22:53:13.283Z,5.88
2023-01-07T22:55:48.812Z,6.30
2023-01-07T22:58:17.970Z,7.03
2023-01-07T23:01:10.224Z,7.15
2023-01-07T23:03:37.245Z,7.38
2023-01-07T23:06:04.811Z,7.53
2023-01-07T23:08:34.243Z,7.93
2023-01-07T23:11:01.168Z,8.13
2023-01-07T23:13:28.342Z,7.68
2023-01-07T23:15:55.763Z,7.97
2023-01-07T23:18:23.044Z,8.07
2023-01-07T23:20:54.834Z,8.15
2023-01-07T23:23:21.771Z,8.70
2023-01-07T23:25:50.698Z,7.53
2023-01-07T23:28:19.022Z,8.10
2023-01-07T23:30:46.073Z,8.00
2023-01-07T23:33:13.009Z,7.22
2023-01-07T23:35:39.881Z,7.20
2023-01-07T23:38:06.865Z,7.18
2023-01-07T23:40:33.815Z,6.22
2023-01-07T23:43:00.907Z,6.13
2023-01-07T23:45:30.463Z,6.72
2023-01-07T23:48:00.431Z,6.72
2023-01-07T23:50:27.391Z,6.75
2023-01-07T23:52:54.269Z,6.75
2023-01-07T23:55:21.326Z,6.35
2023-01-07T23:57:50.447Z,6.95
